Time;durP1;ratioP1;P1;durP2;ratioP2;P2;SDS_P1;SDS_P2;PMS_P1;PMS_P2;Temp;Humidity;BMP_temperature;BMP_pressure;BME280_temperature;BME280_humidity;BME280_pressure;Samples;Min_cycle;Max_cycle;Signal;HPM_P1;HPM_P2
2022/07/24 00:00:36;;;;;;;5.93;4.70;;;19.20;99.90;;;;;;4974842;28;20434;-74
2022/07/24 00:03:16;;;;;;;7.33;4.47;;;19.10;99.90;;;;;;4984262;28;20454;-77
2022/07/24 00:05:43;;;;;;;5.60;4.53;;;19.20;99.90;;;;;;4974959;28;20482;-72
2022/07/24 00:08:10;;;;;;;7.40;4.40;;;19.20;99.90;;;;;;4976743;28;20466;-72
2022/07/24 00:10:38;;;;;;;9.60;6.37;;;19.20;99.90;;;;;;5001167;28;20441;-72
2022/07/24 00:13:06;;;;;;;6.97;4.50;;;19.10;99.90;;;;;;5001934;28;20482;-74
2022/07/24 00:15:33;;;;;;;14.90;4.63;;;19.10;99.90;;;;;;5004177;28;20463;-72
2022/07/24 00:18:00;;;;;;;6.97;4.80;;;19.10;99.90;;;;;;5005631;28;20469;-73
2022/07/24 00:20:27;;;;;;;6.80;4.30;;;19.10;99.90;;;;;;4994122;28;20549;-73
2022/07/24 00:22:54;;;;;;;6.93;4.63;;;19.10;99.90;;;;;;4986286;28;20469;-73
2022/07/24 00:25:21;;;;;;;6.40;5.30;;;19.00;99.90;;;;;;4987750;28;20470;-73
2022/07/24 00:27:49;;;;;;;7.90;5.87;;;19.00;99.90;;;;;;4980423;28;21119;-73
2022/07/24 00:30:16;;;;;;;6.77;5.27;;;18.90;99.90;;;;;;4975914;28;20841;-73
2022/07/24 00:32:43;;;;;;;9.07;5.60;;;18.90;99.90;;;;;;4985115;28;20901;-73
2022/07/24 00:35:12;;;;;;;8.27;6.83;;;18.90;99.90;;;;;;4976385;28;20458;-74
2022/07/24 00:37:40;;;;;;;6.77;5.30;;;18.90;99.90;;;;;;4979020;28;20480;-73
2022/07/24 00:40:08;;;;;;;6.93;5.30;;;18.90;99.90;;;;;;4981848;28;20461;-73
2022/07/24 00:42:35;;;;;;;5.40;4.77;;;18.90;99.90;;;;;;4982189;28;20477;-73
2022/07/24 00:45:04;;;;;;;7.20;5.10;;;18.90;99.90;;;;;;4977319;28;21015;-73
2022/07/24 00:47:31;;;;;;;6.53;3.90;;;18.90;99.90;;;;;;4984475;28;20482;-73
2022/07/24 00:49:57;;;;;;;7.17;4.90;;;18.90;99.90;;;;;;4979265;28;20465;-73
2022/07/24 00:52:24;;;;;;;6.40;4.83;;;18.80;99.90;;;;;;4985419;28;20474;-73
2022/07/24 00:54:52;;;;;;;6.23;5.53;;;18.80;99.90;;;;;;4978245;28;20492;-73
2022/07/24 00:57:18;;;;;;;7.63;4.73;;;18.90;99.90;;;;;;4980766;28;20474;-73
2022/07/24 00:59:45;;;;;;;5.70;4.33;;;18.90;99.90;;;;;;4977775;28;21081;-73
2022/07/24 01:02:14;;;;;;;5.80;4.67;;;18.90;99.90;;;;;;4988621;28;20804;-73
2022/07/24 01:04:41;;;;;;;12.63;4.60;;;18.90;99.90;;;;;;4979645;28;20508;-73
2022/07/24 01:07:08;;;;;;;6.50;5.50;;;18.90;99.90;;;;;;4986091;28;20482;-72
2022/07/24 01:09:35;;;;;;;7.50;4.13;;;18.80;99.90;;;;;;4986532;28;20890;-72
2022/07/24 01:12:03;;;;;;;5.90;4.70;;;18.70;99.90;;;;;;4973201;28;20478;-72
2022/07/24 01:14:33;;;;;;;5.27;4.70;;;18.70;99.90;;;;;;4976938;28;20481;-72
2022/07/24 01:17:02;;;;;;;14.03;4.17;;;18.70;99.90;;;;;;4975993;28;20498;-72
2022/07/24 01:19:30;;;;;;;4.17;3.77;;;18.70;99.90;;;;;;4980152;28;20465;-73
2022/07/24 01:21:58;;;;;;;6.90;4.10;;;18.40;99.90;;;;;;4978577;28;20998;-72
2022/07/24 01:24:25;;;;;;;8.07;5.50;;;18.40;99.90;;;;;;4985313;28;20540;-72
2022/07/24 01:26:52;;;;;;;6.50;4.50;;;18.50;99.90;;;;;;4973009;28;20569;-72
2022/07/24 01:29:20;;;;;;;6.70;4.83;;;18.50;99.90;;;;;;4981390;28;20463;-72
2022/07/24 01:31:47;;;;;;;7.00;5.53;;;18.50;99.90;;;;;;4982050;28;21015;-72
2022/07/24 01:34:14;;;;;;;7.33;4.83;;;18.50;99.90;;;;;;4982735;28;20474;-72
2022/07/24 01:36:41;;;;;;;5.33;4.00;;;18.50;99.90;;;;;;4982791;28;20512;-72
2022/07/24 01:39:09;;;;;;;5.40;4.03;;;18.40;99.90;;;;;;4975150;28;20459;-72
2022/07/24 01:41:36;;;;;;;6.73;5.10;;;18.30;99.90;;;;;;4976077;28;20477;-73
2022/07/24 01:44:04;;;;;;;5.93;5.27;;;18.30;99.90;;;;;;4978458;28;20466;-73
2022/07/24 01:46:30;;;;;;;5.37;4.37;;;18.30;99.90;;;;;;4984563;28;21118;-73
2022/07/24 01:48:57;;;;;;;6.67;4.00;;;18.30;99.90;;;;;;4984510;28;20998;-73
2022/07/24 01:51:24;;;;;;;6.83;3.77;;;18.20;99.90;;;;;;4980189;28;20469;-73
2022/07/24 01:53:51;;;;;;;5.43;3.90;;;18.20;99.90;;;;;;4980108;28;20469;-74
2022/07/24 01:56:19;;;;;;;5.57;4.80;;;18.10;99.90;;;;;;4979373;28;21016;-74
2022/07/24 01:58:46;;;;;;;5.23;4.23;;;18.10;99.90;;;;;;4976661;28;20483;-73
2022/07/24 02:01:13;;;;;;;4.80;4.23;;;18.10;99.90;;;;;;4988187;28;20465;-74
2022/07/24 02:03:40;;;;;;;4.83;4.07;;;18.10;99.90;;;;;;4983588;28;23226;-74
2022/07/24 02:06:07;;;;;;;5.07;4.57;;;18.10;99.90;;;;;;4981036;28;20584;-72
2022/07/24 02:08:34;;;;;;;6.50;4.40;;;18.00;99.90;;;;;;4981996;28;20853;-72
2022/07/24 02:11:00;;;;;;;4.47;4.07;;;17.90;99.90;;;;;;4986433;28;20474;-72
2022/07/24 02:13:29;;;;;;;4.90;3.77;;;17.90;99.90;;;;;;4980837;28;20467;-73
2022/07/24 02:15:56;;;;;;;6.50;4.10;;;17.80;99.90;;;;;;4971144;28;20491;-73
2022/07/24 02:18:22;;;;;;;4.63;3.87;;;17.80;99.90;;;;;;4977523;28;20469;-73
2022/07/24 02:20:50;;;;;;;9.53;5.43;;;17.90;99.90;;;;;;4981846;28;20466;-73
2022/07/24 02:23:18;;;;;;;5.23;3.63;;;17.80;99.90;;;;;;4975736;28;21025;-73
2022/07/24 02:25:46;;;;;;;5.57;4.20;;;17.80;99.90;;;;;;4977174;28;20491;-73
2022/07/24 02:28:13;;;;;;;6.13;5.10;;;17.80;99.90;;;;;;4979625;28;20506;-73
2022/07/24 02:30:42;;;;;;;7.23;4.30;;;17.80;99.90;;;;;;4980965;28;20842;-73
2022/07/24 02:33:09;;;;;;;4.67;4.23;;;17.80;99.90;;;;;;4979551;28;20469;-73
2022/07/24 02:35:37;;;;;;;6.17;3.97;;;17.70;99.90;;;;;;4982963;28;20917;-73
2022/07/24 02:38:04;;;;;;;5.10;4.30;;;17.70;99.90;;;;;;4980811;28;20474;-73
2022/07/24 02:40:32;;;;;;;8.30;5.90;;;17.70;99.90;;;;;;4978349;28;20463;-72
2022/07/24 02:42:59;;;;;;;8.97;5.10;;;17.70;99.90;;;;;;4978717;28;20895;-73
2022/07/24 02:45:26;;;;;;;5.40;4.00;;;17.60;99.90;;;;;;4979669;28;20495;-73
2022/07/24 02:47:56;;;;;;;5.77;4.73;;;17.60;99.90;;;;;;4980636;28;20471;-73
2022/07/24 02:50:25;;;;;;;5.13;3.30;;;17.50;99.90;;;;;;4974470;28;20953;-72
2022/07/24 02:52:52;;;;;;;6.00;4.50;;;17.50;99.90;;;;;;4974161;28;20462;-73
2022/07/24 02:55:19;;;;;;;5.30;4.53;;;17.50;99.90;;;;;;4983596;28;20447;-73
2022/07/24 02:57:46;;;;;;;9.10;4.30;;;17.50;99.90;;;;;;4981109;28;20482;-72
2022/07/24 03:00:16;;;;;;;5.60;4.77;;;17.40;99.90;;;;;;4974768;28;20465;-73
2022/07/24 03:02:44;;;;;;;5.47;4.57;;;17.50;99.90;;;;;;4984997;28;20588;-72
2022/07/24 03:05:12;;;;;;;7.60;3.90;;;17.50;99.90;;;;;;4983260;28;20478;-73
2022/07/24 03:07:39;;;;;;;6.03;4.50;;;17.50;99.90;;;;;;4977546;28;20565;-73
2022/07/24 03:10:07;;;;;;;11.00;4.20;;;17.50;99.90;;;;;;4977814;28;20462;-71
2022/07/24 03:12:34;;;;;;;6.07;4.50;;;17.50;99.90;;;;;;4978510;28;20469;-72
2022/07/24 03:15:01;;;;;;;4.70;4.30;;;17.40;99.90;;;;;;4980852;28;20505;-72
2022/07/24 03:17:28;;;;;;;4.63;4.00;;;17.50;99.90;;;;;;4982078;28;20517;-72
2022/07/24 03:19:55;;;;;;;9.33;5.60;;;17.50;99.90;;;;;;4975506;28;20465;-73
2022/07/24 03:22:23;;;;;;;6.47;3.53;;;17.50;99.90;;;;;;4982492;28;20462;-72
2022/07/24 03:24:50;;;;;;;5.10;4.03;;;17.50;99.90;;;;;;4979324;28;20489;-73
2022/07/24 03:27:17;;;;;;;5.20;3.57;;;17.50;99.90;;;;;;4977684;28;20478;-72
2022/07/24 03:29:44;;;;;;;6.20;4.03;;;17.50;99.90;;;;;;4979946;28;20574;-73
2022/07/24 03:32:10;;;;;;;7.43;4.20;;;17.50;99.90;;;;;;4979692;28;20473;-73
2022/07/24 03:34:37;;;;;;;4.00;3.43;;;17.50;99.90;;;;;;4981831;28;20673;-73
2022/07/24 03:37:04;;;;;;;9.00;4.70;;;17.40;99.90;;;;;;4981062;28;20490;-73
2022/07/24 03:39:32;;;;;;;5.30;3.97;;;17.40;99.90;;;;;;4973630;28;20475;-72
2022/07/24 03:41:59;;;;;;;3.70;3.27;;;17.40;99.90;;;;;;4983433;28;20497;-73
2022/07/24 03:44:26;;;;;;;4.43;3.60;;;17.50;99.90;;;;;;4977577;28;20482;-74
2022/07/24 03:46:53;;;;;;;5.83;4.13;;;17.50;99.90;;;;;;4981326;28;21052;-73
2022/07/24 03:49:20;;;;;;;6.80;4.53;;;17.50;99.90;;;;;;4977573;28;21008;-72
2022/07/24 03:51:47;;;;;;;8.93;5.47;;;17.50;99.90;;;;;;4974520;28;20815;-73
2022/07/24 03:54:14;;;;;;;4.50;3.80;;;17.50;99.90;;;;;;4990673;28;20442;-72
2022/07/24 03:56:42;;;;;;;5.73;4.33;;;17.50;99.90;;;;;;4984571;28;20839;-72
2022/07/24 03:59:09;;;;;;;5.70;4.93;;;17.50;99.90;;;;;;4982146;28;20466;-72
2022/07/24 04:01:36;;;;;;;6.17;4.00;;;17.60;99.90;;;;;;4977400;28;20940;-72
2022/07/24 04:04:04;;;;;;;11.93;5.17;;;17.60;99.90;;;;;;4977587;28;20462;-72
2022/07/24 04:06:31;;;;;;;5.07;3.60;;;17.60;99.90;;;;;;4972504;28;20495;-72
2022/07/24 04:08:58;;;;;;;9.53;4.20;;;17.60;99.90;;;;;;4978718;28;20827;-73
2022/07/24 04:11:25;;;;;;;5.57;4.20;;;17.50;99.90;;;;;;4975306;28;20466;-73
2022/07/24 04:13:53;;;;;;;6.30;4.60;;;17.50;99.90;;;;;;4976102;28;20438;-73
2022/07/24 04:16:20;;;;;;;6.70;4.53;;;17.60;99.90;;;;;;4978637;28;20497;-73
2022/07/24 04:18:47;;;;;;;5.90;3.67;;;17.60;99.90;;;;;;4980570;28;20466;-72
2022/07/24 04:21:14;;;;;;;6.63;4.07;;;17.60;99.90;;;;;;5026608;22;20506;-70
2022/07/24 04:23:41;;;;;;;4.80;4.30;;;17.60;99.90;;;;;;5036700;28;20466;-69
2022/07/24 04:26:08;;;;;;;13.90;4.23;;;17.70;99.90;;;;;;5036885;28;20507;-70
2022/07/24 04:28:35;;;;;;;5.37;4.23;;;17.80;99.90;;;;;;5041418;28;20800;-69
2022/07/24 04:31:04;;;;;;;6.10;4.43;;;17.80;99.90;;;;;;5016536;28;20485;-69
2022/07/24 04:33:31;;;;;;;5.97;5.20;;;17.90;99.90;;;;;;5017726;28;20445;-70
2022/07/24 04:35:58;;;;;;;6.30;3.80;;;17.90;99.90;;;;;;5016632;28;20539;-69
2022/07/24 04:38:25;;;;;;;6.00;4.10;;;18.00;99.90;;;;;;5012485;28;20545;-69
2022/07/24 04:40:52;;;;;;;5.83;4.23;;;17.90;99.90;;;;;;5018091;28;20451;-69
2022/07/24 04:43:19;;;;;;;6.67;5.40;;;18.00;99.90;;;;;;5020472;28;20418;-70
2022/07/24 04:45:46;;;;;;;8.80;5.73;;;18.00;99.90;;;;;;5011771;28;20477;-70
2022/07/24 04:48:14;;;;;;;6.43;4.60;;;18.00;99.90;;;;;;5015921;28;20469;-69
2022/07/24 04:50:41;;;;;;;6.57;4.50;;;18.10;99.90;;;;;;5008418;28;20476;-69
2022/07/24 04:53:08;;;;;;;5.03;4.53;;;18.20;99.90;;;;;;5005996;28;20457;-70
2022/07/24 04:55:35;;;;;;;8.20;5.07;;;18.30;99.90;;;;;;5022213;28;20500;-69
2022/07/24 04:58:01;;;;;;;4.50;4.00;;;18.30;99.90;;;;;;5018100;28;20461;-69
2022/07/24 05:00:28;;;;;;;5.77;5.20;;;18.40;99.90;;;;;;5022947;28;20473;-70
2022/07/24 05:02:55;;;;;;;7.67;4.90;;;18.50;99.90;;;;;;5019794;28;20980;-70
2022/07/24 05:05:24;;;;;;;6.10;4.47;;;18.60;99.90;;;;;;5021970;28;20483;-70
2022/07/24 05:07:50;;;;;;;4.30;3.93;;;18.70;99.90;;;;;;5019626;28;20441;-69
2022/07/24 05:10:17;;;;;;;5.63;4.00;;;19.00;99.90;;;;;;5023607;28;20465;-70
2022/07/24 05:12:44;;;;;;;5.40;4.20;;;19.20;99.90;;;;;;5023547;28;20460;-70
2022/07/24 05:15:11;;;;;;;4.83;4.33;;;19.50;99.90;;;;;;5021470;28;20408;-70
2022/07/24 05:17:39;;;;;;;6.00;5.43;;;19.80;99.90;;;;;;5023775;28;20796;-70
2022/07/24 05:20:07;;;;;;;7.10;4.13;;;20.00;99.90;;;;;;5015729;28;20516;-70
2022/07/24 05:22:35;;;;;;;5.03;4.57;;;20.30;99.90;;;;;;5018105;28;20457;-70
2022/07/24 05:25:02;;;;;;;7.33;5.00;;;20.50;99.90;;;;;;5021480;28;21160;-70
2022/07/24 05:27:29;;;;;;;4.47;4.07;;;20.70;99.90;;;;;;5017620;28;20457;-70
2022/07/24 05:29:56;;;;;;;6.60;5.03;;;20.90;99.90;;;;;;5016148;28;20508;-70
2022/07/24 05:32:23;;;;;;;8.20;4.73;;;21.10;99.90;;;;;;5019544;28;20464;-70
2022/07/24 05:34:49;;;;;;;7.60;4.63;;;21.30;99.90;;;;;;5019569;28;20454;-70
2022/07/24 05:37:16;;;;;;;4.83;4.30;;;21.50;99.90;;;;;;5019463;28;20441;-70
2022/07/24 05:39:45;;;;;;;3.97;3.60;;;21.70;99.90;;;;;;5018577;28;20491;-71
2022/07/24 05:42:12;;;;;;;7.60;5.43;;;22.00;99.90;;;;;;5024419;28;20441;-70
2022/07/24 05:44:38;;;;;;;4.00;3.60;;;22.40;99.90;;;;;;5022686;28;20449;-70
2022/07/24 05:47:06;;;;;;;10.73;4.60;;;22.80;99.90;;;;;;5021993;28;20810;-70
2022/07/24 05:49:33;;;;;;;7.60;4.17;;;23.00;99.90;;;;;;5022103;28;20452;-71
2022/07/24 05:52:02;;;;;;;5.90;4.90;;;22.80;99.90;;;;;;5020179;28;20457;-71
2022/07/24 05:54:28;;;;;;;6.60;4.13;;;23.10;99.90;;;;;;5015006;28;20875;-71
2022/07/24 05:56:57;;;;;;;4.77;4.37;;;23.60;99.90;;;;;;5014786;28;20821;-71
2022/07/24 05:59:24;;;;;;;5.40;4.80;;;23.90;99.90;;;;;;5019828;28;20969;-70
2022/07/24 06:01:51;;;;;;;6.37;3.77;;;24.30;99.90;;;;;;5013795;28;20457;-70
2022/07/24 06:04:17;;;;;;;5.07;3.97;;;24.60;99.90;;;;;;5020126;28;20533;-69
2022/07/24 06:06:44;;;;;;;5.17;4.37;;;25.00;99.90;;;;;;5012393;28;20485;-70
2022/07/24 06:09:11;;;;;;;4.70;3.87;;;25.40;99.90;;;;;;5013398;28;20457;-71
2022/07/24 06:11:38;;;;;;;6.80;4.07;;;25.40;99.90;;;;;;5016947;28;20483;-71
2022/07/24 06:14:06;;;;;;;3.77;3.47;;;25.50;99.90;;;;;;5019888;28;20496;-71
2022/07/24 06:16:33;;;;;;;4.43;4.03;;;25.60;99.90;;;;;;5014425;28;20453;-71
2022/07/24 06:19:00;;;;;;;4.03;3.67;;;26.00;99.90;;;;;;5016014;28;20222;-70
2022/07/24 06:21:26;;;;;;;3.63;3.33;;;26.30;99.90;;;;;;5017621;28;20496;-70
2022/07/24 06:23:53;;;;;;;3.57;3.27;;;26.10;99.90;;;;;;5009472;28;20456;-70
2022/07/24 06:26:20;;;;;;;4.33;3.53;;;26.30;99.90;;;;;;5015683;28;20904;-70
2022/07/24 06:28:47;;;;;;;5.83;3.73;;;26.50;99.90;;;;;;5018018;28;20487;-70
2022/07/24 06:31:15;;;;;;;3.77;3.47;;;26.70;99.90;;;;;;5013132;28;20489;-70
2022/07/24 06:33:42;;;;;;;3.57;3.27;;;26.90;99.90;;;;;;5019018;28;20849;-70
2022/07/24 06:36:09;;;;;;;4.20;2.90;;;27.20;99.90;;;;;;5015137;28;20453;-70
2022/07/24 06:38:37;;;;;;;4.03;3.07;;;27.10;99.90;;;;;;5006516;28;20455;-70
2022/07/24 06:41:04;;;;;;;4.20;3.27;;;27.40;99.90;;;;;;5011049;28;20488;-70
2022/07/24 06:43:30;;;;;;;3.93;3.50;;;27.80;99.90;;;;;;5004337;28;20460;-70
2022/07/24 06:45:57;;;;;;;3.07;2.83;;;27.90;99.90;;;;;;5013922;28;20484;-70
2022/07/24 06:48:26;;;;;;;3.80;3.30;;;27.90;99.90;;;;;;5014318;28;20463;-69
2022/07/24 06:50:52;;;;;;;3.47;3.17;;;27.50;99.90;;;;;;5015560;28;20492;-70
2022/07/24 06:53:19;;;;;;;3.80;3.07;;;27.40;99.90;;;;;;5006743;28;20476;-69
2022/07/24 06:55:47;;;;;;;2.90;2.70;;;27.80;99.90;;;;;;5014651;28;20464;-70
2022/07/24 06:58:14;;;;;;;3.77;3.47;;;28.00;99.90;;;;;;5010388;28;20997;-69
2022/07/24 07:00:41;;;;;;;5.90;3.80;;;27.80;99.90;;;;;;5007974;28;20909;-70
2022/07/24 07:03:08;;;;;;;4.27;3.50;;;27.90;99.90;;;;;;5016981;28;20462;-70
2022/07/24 07:05:36;;;;;;;7.13;3.30;;;27.80;99.90;;;;;;5019600;28;20476;-70
2022/07/24 07:08:03;;;;;;;5.43;3.37;;;28.10;99.90;;;;;;5016828;28;20485;-70
2022/07/24 07:10:30;;;;;;;3.73;3.10;;;28.00;99.90;;;;;;5017935;28;20482;-70
2022/07/24 07:12:57;;;;;;;3.80;3.43;;;28.00;99.90;;;;;;5022400;28;20449;-70
2022/07/24 07:15:23;;;;;;;4.67;3.87;;;28.60;99.90;;;;;;5013944;28;20458;-69
2022/07/24 07:17:50;;;;;;;3.00;2.80;;;29.00;99.90;;;;;;5008895;28;20521;-70
2022/07/24 07:20:17;;;;;;;3.97;3.23;;;29.20;99.90;;;;;;5017274;28;20501;-70
2022/07/24 07:22:45;;;;;;;3.53;2.90;;;29.50;99.90;;;;;;5006966;28;20466;-70
2022/07/24 07:25:12;;;;;;;3.33;3.03;;;29.60;99.90;;;;;;5010691;28;20460;-70
2022/07/24 07:27:40;;;;;;;3.93;3.63;;;30.00;99.90;;;;;;5011958;28;20458;-70
2022/07/24 07:30:09;;;;;;;3.50;3.20;;;30.10;99.90;;;;;;5018025;28;20497;-70
2022/07/24 07:32:36;;;;;;;3.33;3.10;;;30.00;99.90;;;;;;5020447;28;20456;-69
2022/07/24 07:35:04;;;;;;;4.10;3.10;;;30.20;99.90;;;;;;5015062;28;20474;-69
2022/07/24 07:37:30;;;;;;;5.47;4.13;;;30.50;99.60;;;;;;5017233;28;20458;-70
2022/07/24 07:39:59;;;;;;;3.63;2.97;;;30.30;98.80;;;;;;5013855;28;20492;-70
2022/07/24 07:42:26;;;;;;;3.57;3.27;;;30.10;99.50;;;;;;5017943;28;20502;-70
2022/07/24 07:44:53;;;;;;;3.80;2.77;;;30.30;99.90;;;;;;5012216;28;20449;-70
2022/07/24 07:47:20;;;;;;;3.13;2.83;;;30.70;99.00;;;;;;5012020;28;20483;-69
2022/07/24 07:49:47;;;;;;;5.20;3.67;;;30.80;98.40;;;;;;5012912;28;21071;-70
2022/07/24 07:52:14;;;;;;;4.20;3.00;;;30.90;97.70;;;;;;5016860;28;20502;-70
2022/07/24 07:54:41;;;;;;;3.90;3.37;;;30.90;97.80;;;;;;5008805;28;20980;-69
2022/07/24 07:57:09;;;;;;;2.90;2.70;;;30.70;97.90;;;;;;5017195;28;20460;-70
2022/07/24 07:59:36;;;;;;;3.53;3.23;;;30.90;97.10;;;;;;5012136;28;23554;-70
2022/07/24 08:02:03;;;;;;;5.77;3.63;;;31.20;97.10;;;;;;5016138;28;20464;-70
2022/07/24 08:04:30;;;;;;;4.50;3.50;;;31.60;96.50;;;;;;5009723;28;20461;-70
2022/07/24 08:06:56;;;;;;;7.70;3.40;;;32.10;94.80;;;;;;5018398;28;20473;-70
2022/07/24 08:09:23;;;;;;;4.70;4.07;;;32.30;94.40;;;;;;5016688;28;20980;-70
2022/07/24 08:11:50;;;;;;;3.30;2.90;;;32.40;95.30;;;;;;5017192;28;20984;-70
2022/07/24 08:14:18;;;;;;;3.77;3.47;;;32.10;94.80;;;;;;5016853;28;20460;-70
2022/07/24 08:16:45;;;;;;;4.50;3.17;;;32.50;93.80;;;;;;5013220;28;20457;-70
2022/07/24 08:19:12;;;;;;;3.50;3.13;;;32.50;93.20;;;;;;5018003;28;20552;-70
2022/07/24 08:21:39;;;;;;;2.80;2.60;;;31.80;94.00;;;;;;5014664;28;20495;-70
2022/07/24 08:24:07;;;;;;;3.43;3.13;;;32.10;93.00;;;;;;5013357;28;20465;-70
2022/07/24 08:26:34;;;;;;;6.00;4.03;;;32.20;91.90;;;;;;5012326;28;20481;-69
2022/07/24 08:29:01;;;;;;;4.13;3.27;;;32.10;92.60;;;;;;5011824;28;20460;-70
2022/07/24 08:31:29;;;;;;;3.53;3.23;;;32.00;92.10;;;;;;5005568;28;20481;-70
2022/07/24 08:33:56;;;;;;;3.50;3.20;;;32.20;91.70;;;;;;5008468;28;20958;-70
2022/07/24 08:36:23;;;;;;;4.77;3.40;;;32.30;91.80;;;;;;5001668;28;20545;-70
2022/07/24 08:38:50;;;;;;;4.30;3.90;;;32.10;91.50;;;;;;5006099;28;20909;-70
2022/07/24 08:41:18;;;;;;;3.53;3.23;;;32.10;91.70;;;;;;5010459;28;20846;-70
2022/07/24 08:43:45;;;;;;;6.03;3.57;;;32.10;90.30;;;;;;5014786;28;20485;-70
2022/07/24 08:46:15;;;;;;;5.80;3.50;;;31.70;90.70;;;;;;5015123;28;20482;-69
2022/07/24 08:48:46;;;;;;;5.47;4.70;;;31.80;91.20;;;;;;5014281;28;20457;-70
2022/07/24 08:51:14;;;;;;;5.07;3.60;;;31.80;90.40;;;;;;5005289;28;20481;-70
2022/07/24 08:53:41;;;;;;;5.50;4.90;;;31.80;90.30;;;;;;5014564;28;20521;-70
2022/07/24 08:56:08;;;;;;;4.10;3.73;;;32.30;90.40;;;;;;5014718;28;20862;-70
2022/07/24 08:58:38;;;;;;;6.00;4.43;;;32.90;88.90;;;;;;5018595;28;20575;-70
2022/07/24 09:01:05;;;;;;;4.13;3.73;;;33.30;86.40;;;;;;5013317;28;20488;-70
2022/07/24 09:03:40;;;;;;;4.33;3.67;;;33.30;85.40;;;;;;5010465;28;21012;-70
2022/07/24 09:06:09;;;;;;;4.20;3.90;;;33.60;83.90;;;;;;5012658;28;20858;-71
2022/07/24 09:08:37;;;;;;;4.60;4.17;;;33.50;84.30;;;;;;5019530;28;20468;-71
2022/07/24 09:11:04;;;;;;;5.73;4.37;;;33.70;83.80;;;;;;5020918;28;20484;-71
2022/07/24 09:16:22;;;;;;;4.47;4.07;;;34.50;80.90;;;;;;5019127;28;20443;-71
2022/07/24 09:18:50;;;;;;;4.73;3.77;;;34.40;83.50;;;;;;5019149;28;20486;-71
2022/07/24 09:21:19;;;;;;;8.83;4.40;;;34.60;80.70;;;;;;5022768;28;20492;-70
2022/07/24 09:23:48;;;;;;;4.10;3.80;;;34.70;78.80;;;;;;5011336;28;20929;-70
2022/07/24 09:26:15;;;;;;;4.40;4.00;;;35.00;77.40;;;;;;5009861;28;20489;-71
2022/07/24 09:28:52;;;;;;;4.90;4.47;;;35.20;75.50;;;;;;5013355;28;20461;-71
2022/07/24 09:31:21;;;;;;;4.80;4.30;;;34.60;76.20;;;;;;5009259;28;20805;-73
2022/07/24 09:33:48;;;;;;;5.93;4.67;;;34.20;77.70;;;;;;5008114;28;20483;-71
2022/07/24 09:36:19;;;;;;;5.90;4.80;;;34.20;77.80;;;;;;5022746;28;20441;-71
2022/07/24 09:38:49;;;;;;;4.33;3.93;;;34.20;77.90;;;;;;5015382;28;20464;-71
2022/07/24 09:41:21;;;;;;;4.73;4.30;;;34.30;78.90;;;;;;5019903;28;20496;-71
2022/07/24 09:43:58;;;;;;;5.50;4.60;;;34.20;78.10;;;;;;5020291;28;20491;-71
2022/07/24 09:46:26;;;;;;;4.70;4.30;;;34.70;75.20;;;;;;5022889;28;20552;-71
2022/07/24 09:48:56;;;;;;;7.00;4.60;;;34.60;76.40;;;;;;5023586;28;20539;-71
2022/07/24 09:51:26;;;;;;;4.83;4.43;;;34.90;74.80;;;;;;5020363;28;20486;-71
2022/07/24 09:53:55;;;;;;;7.70;4.77;;;35.30;73.10;;;;;;5020665;28;20459;-71
2022/07/24 09:56:22;;;;;;;5.67;4.10;;;34.90;74.20;;;;;;5020607;28;20462;-71
2022/07/24 09:58:52;;;;;;;4.90;4.27;;;35.30;75.00;;;;;;5019358;28;20455;-71
2022/07/24 10:01:22;;;;;;;4.93;3.93;;;36.10;73.90;;;;;;5022443;28;20466;-70
2022/07/24 10:03:51;;;;;;;5.27;4.77;;;36.40;71.40;;;;;;5022222;28;20434;-71
2022/07/24 10:06:19;;;;;;;4.57;4.27;;;36.70;71.80;;;;;;5019735;28;20504;-71
2022/07/24 10:08:50;;;;;;;5.03;4.47;;;36.60;68.70;;;;;;5022176;28;20452;-71
2022/07/24 10:11:18;;;;;;;4.63;4.23;;;36.70;67.50;;;;;;5018811;28;20480;-71
2022/07/24 10:13:46;;;;;;;4.47;4.07;;;36.90;68.40;;;;;;5021224;28;20515;-71
2022/07/24 10:16:27;;;;;;;5.93;4.43;;;36.70;68.20;;;;;;5021431;28;20567;-71
2022/07/24 10:18:55;;;;;;;5.67;5.17;;;37.20;68.40;;;;;;5020717;28;20450;-71
2022/07/24 10:21:25;;;;;;;5.53;5.13;;;36.80;66.70;;;;;;5022378;28;20487;-71
2022/07/24 10:24:29;;;;;;;4.37;3.97;;;36.80;66.40;;;;;;5021494;28;20479;-71
2022/07/24 10:27:04;;;;;;;5.47;4.03;;;36.40;66.00;;;;;;5030897;22;20503;-76
2022/07/24 10:29:34;;;;;;;4.73;4.17;;;36.20;68.40;;;;;;5017208;28;20485;-76
2022/07/24 10:32:01;;;;;;;5.67;4.50;;;35.50;67.90;;;;;;5021894;28;20456;-76
2022/07/24 10:34:34;;;;;;;4.47;4.07;;;35.50;67.10;;;;;;5026339;28;20611;-76
2022/07/24 10:37:10;;;;;;;4.70;4.30;;;35.60;67.10;;;;;;5026103;28;21033;-76
2022/07/24 10:39:48;;;;;;;4.93;4.30;;;35.60;67.20;;;;;;5020626;28;20541;-77
2022/07/24 10:42:16;;;;;;;5.00;4.53;;;35.70;68.40;;;;;;5022597;28;20528;-76
2022/07/24 10:44:44;;;;;;;7.43;5.10;;;36.40;64.80;;;;;;5019901;28;20462;-76
2022/07/24 10:47:13;;;;;;;5.70;4.20;;;35.80;65.00;;;;;;5022555;28;20571;-76
2022/07/24 10:49:45;;;;;;;4.57;4.17;;;35.70;66.70;;;;;;5026375;28;20734;-77
2022/07/24 10:52:22;;;;;;;4.00;3.70;;;35.60;66.40;;;;;;5022593;28;20445;-77
2022/07/24 10:54:49;;;;;;;7.13;5.23;;;36.10;66.10;;;;;;5019611;28;20441;-77
2022/07/24 10:57:17;;;;;;;5.10;4.63;;;36.10;66.10;;;;;;5024395;28;20471;-77
2022/07/24 10:59:44;;;;;;;6.80;4.60;;;36.80;64.30;;;;;;5021273;28;20575;-76
2022/07/24 11:02:28;;;;;;;5.90;4.10;;;37.00;62.30;;;;;;5021883;28;20461;-77
2022/07/24 11:05:24;;;;;;;4.87;4.37;;;37.30;62.40;;;;;;5018930;28;21108;-76
2022/07/24 11:08:36;;;;;;;4.50;4.10;;;37.50;60.30;;;;;;5022672;28;21010;-77
2022/07/24 11:11:09;;;;;;;5.03;4.57;;;37.50;60.40;;;;;;5022153;28;20460;-77
2022/07/24 11:13:46;;;;;;;4.37;3.97;;;37.40;61.30;;;;;;5019270;28;20527;-77
2022/07/24 11:16:35;;;;;;;4.90;4.07;;;38.10;59.20;;;;;;5021769;28;20440;-76
2022/07/24 11:19:30;;;;;;;5.40;3.90;;;38.30;58.00;;;;;;5020961;28;20456;-76
2022/07/24 11:22:11;;;;;;;4.40;4.00;;;37.50;58.60;;;;;;5020070;28;20455;-77
2022/07/24 11:25:02;;;;;;;5.80;4.53;;;36.80;59.60;;;;;;5023061;28;20989;-76
2022/07/24 11:27:45;;;;;;;4.63;4.23;;;37.00;59.10;;;;;;5019788;28;20862;-77
2022/07/24 11:30:15;;;;;;;7.00;4.53;;;37.00;60.50;;;;;;5022878;28;20444;-77
2022/07/24 11:32:44;;;;;;;4.23;3.90;;;36.70;58.90;;;;;;5023228;28;20445;-76
2022/07/24 11:35:11;;;;;;;8.40;4.37;;;36.20;59.50;;;;;;5020169;28;21215;-76
2022/07/24 11:37:38;;;;;;;4.23;3.83;;;37.60;58.30;;;;;;5025903;28;20460;-77
2022/07/24 11:40:07;;;;;;;5.23;4.70;;;37.90;58.50;;;;;;5018287;28;20452;-77
2022/07/24 11:42:34;;;;;;;5.03;3.90;;;38.70;58.30;;;;;;5022294;28;20452;-76
2022/07/24 11:45:01;;;;;;;4.37;4.00;;;37.80;58.60;;;;;;5022160;28;20467;-77
2022/07/24 11:47:30;;;;;;;4.37;4.07;;;38.00;57.30;;;;;;5025698;28;20491;-76
2022/07/24 11:50:00;;;;;;;4.97;3.83;;;38.20;56.70;;;;;;5022419;28;20575;-77
2022/07/24 11:52:30;;;;;;;4.20;3.80;;;38.10;56.90;;;;;;5023412;28;20463;-75
2022/07/24 11:54:58;;;;;;;5.63;3.57;;;37.80;56.50;;;;;;5024927;28;20453;-75
2022/07/24 11:57:27;;;;;;;6.00;5.40;;;37.50;55.70;;;;;;5021858;28;20461;-76
2022/07/24 11:59:54;;;;;;;6.17;4.10;;;36.80;57.60;;;;;;5016424;28;20453;-76
2022/07/24 12:02:23;;;;;;;7.07;3.90;;;37.80;55.60;;;;;;5020841;28;20464;-77
2022/07/24 12:04:51;;;;;;;6.00;4.13;;;38.10;55.20;;;;;;5020337;28;20993;-77
2022/07/24 12:07:19;;;;;;;4.70;4.17;;;38.50;54.60;;;;;;5017928;28;20485;-75
2022/07/24 12:09:51;;;;;;;5.43;4.07;;;38.20;54.70;;;;;;5021478;28;20786;-76
2022/07/24 12:12:20;;;;;;;5.90;4.00;;;37.50;55.40;;;;;;5021882;28;20437;-76
2022/07/24 12:14:47;;;;;;;5.13;4.57;;;38.40;56.40;;;;;;5021699;28;20445;-76
2022/07/24 12:17:14;;;;;;;4.80;4.40;;;38.40;54.20;;;;;;5019073;28;20491;-76
2022/07/24 12:19:41;;;;;;;4.27;3.87;;;38.30;54.10;;;;;;5023028;28;20929;-77
2022/07/24 12:22:09;;;;;;;4.97;4.10;;;38.60;52.80;;;;;;5021013;28;20479;-77
2022/07/24 12:24:36;;;;;;;4.50;4.10;;;39.10;53.60;;;;;;5014193;28;20471;-77
2022/07/24 12:27:02;;;;;;;5.17;4.67;;;39.50;53.50;;;;;;5019950;28;20579;-77
2022/07/24 12:29:29;;;;;;;4.77;4.27;;;39.60;52.00;;;;;;5015245;28;20444;-76
2022/07/24 12:32:15;;;;;;;4.03;3.63;;;38.60;52.20;;;;;;5015437;28;20542;-76
2022/07/24 12:34:42;;;;;;;5.70;4.80;;;38.50;52.10;;;;;;5020273;28;21093;-76
2022/07/24 12:37:16;;;;;;;8.47;4.57;;;37.60;53.70;;;;;;5019645;28;20546;-77
2022/07/24 12:39:47;;;;;;;7.83;4.60;;;37.80;54.60;;;;;;5021378;28;20502;-77
2022/07/24 12:42:14;;;;;;;5.80;4.03;;;38.90;54.00;;;;;;5016060;28;20476;-76
2022/07/24 12:44:42;;;;;;;7.53;4.17;;;39.00;52.70;;;;;;5019200;28;20459;-76
2022/07/24 12:47:10;;;;;;;5.90;3.57;;;39.10;52.90;;;;;;5013445;28;20481;-77
2022/07/24 12:49:41;;;;;;;5.50;4.30;;;38.90;51.90;;;;;;5024056;28;21237;-76
2022/07/24 12:52:23;;;;;;;4.77;4.00;;;38.20;54.90;;;;;;5022347;28;20502;-77
2022/07/24 12:54:51;;;;;;;5.77;4.60;;;38.50;54.60;;;;;;5017478;28;20954;-76